Time;durP1;ratioP1;P1;durP2;ratioP2;P2;SDS_P1;SDS_P2;PMS_P1;PMS_P2;Temp;Humidity;BMP_temperature;BMP_pressure;BME280_temperature;BME280_humidity;BME280_pressure;Samples;Min_cycle;Max_cycle;Signal;HPM_P1;HPM_P2
2023/12/14 00:00:17;;;;;;;7.32;4.70;;;10.90;69.40;12.60;100732.00;;;;5017508;28;20303;-76
2023/12/14 00:02:43;;;;;;;5.95;4.20;;;10.90;69.40;12.60;100735.00;;;;5013923;28;20193;-76
2023/12/14 00:05:12;;;;;;;7.20;5.00;;;10.90;69.40;12.50;100741.00;;;;5015531;28;20699;-76
2023/12/14 00:07:39;;;;;;;5.47;4.57;;;10.90;69.40;12.60;100743.00;;;;5017242;28;20196;-76
2023/12/14 00:10:08;;;;;;;7.60;4.90;;;10.80;69.20;12.50;100759.00;;;;5017302;28;20697;-76
2023/12/14 00:12:35;;;;;;;7.03;4.57;;;10.80;69.20;12.50;100761.00;;;;5014003;28;20192;-75
2023/12/14 00:15:01;;;;;;;6.95;5.30;;;10.80;69.30;12.50;100767.00;;;;5014509;28;20211;-76
2023/12/14 00:17:28;;;;;;;8.90;5.43;;;10.80;69.30;12.50;100773.00;;;;5012594;28;20699;-76
2023/12/14 00:19:55;;;;;;;7.75;5.13;;;10.80;69.40;12.50;100779.00;;;;5008423;28;20207;-75
2023/12/14 00:22:24;;;;;;;7.05;5.38;;;10.80;69.40;12.50;100773.00;;;;5009222;28;20193;-75
2023/12/14 00:24:51;;;;;;;7.32;5.15;;;10.80;69.40;12.50;100789.00;;;;5007847;28;20225;-75
2023/12/14 00:27:18;;;;;;;6.82;5.07;;;10.80;69.40;12.50;100796.00;;;;5007962;28;20213;-75
2023/12/14 00:29:45;;;;;;;7.78;5.47;;;10.80;69.40;12.50;100800.00;;;;5007399;28;20201;-75
2023/12/14 00:32:12;;;;;;;7.80;5.43;;;10.80;69.40;12.50;100802.00;;;;5011566;28;20207;-76
2023/12/14 00:34:40;;;;;;;7.05;5.28;;;10.80;69.40;12.50;100807.00;;;;5020654;28;20207;-76
2023/12/14 00:37:07;;;;;;;9.80;6.05;;;10.80;69.40;12.50;100799.00;;;;5011851;28;20271;-76
2023/12/14 00:39:35;;;;;;;8.20;5.63;;;10.80;69.40;12.40;100803.00;;;;5008116;28;20189;-75
2023/12/14 00:42:02;;;;;;;9.05;5.80;;;10.70;69.30;12.40;100804.00;;;;5024051;28;20223;-75
2023/12/14 00:44:29;;;;;;;9.63;5.80;;;10.70;69.10;12.40;100804.00;;;;5025250;28;20217;-76
2023/12/14 00:46:58;;;;;;;7.75;5.95;;;10.70;69.00;12.30;100797.00;;;;5007948;28;20659;-75
2023/12/14 00:49:27;;;;;;;7.57;6.10;;;10.60;69.00;12.30;100801.00;;;;5014021;28;20227;-76
2023/12/14 00:51:54;;;;;;;8.05;5.53;;;10.60;69.10;12.30;100792.00;;;;5010174;28;21070;-75
2023/12/14 00:54:21;;;;;;;7.72;5.82;;;10.60;69.00;12.20;100800.00;;;;5016057;28;20223;-76
2023/12/14 00:56:50;;;;;;;8.20;5.97;;;10.60;69.10;12.20;100812.00;;;;5018193;28;20199;-75
2023/12/14 00:59:17;;;;;;;8.88;5.20;;;10.50;69.10;12.20;100817.00;;;;5020678;28;20208;-76
2023/12/14 01:01:44;;;;;;;7.55;5.50;;;10.50;69.20;12.20;100821.00;;;;5014913;28;20551;-76
2023/12/14 01:04:11;;;;;;;7.45;4.85;;;10.50;69.30;12.20;100836.00;;;;5006988;28;20200;-76
2023/12/14 01:06:38;;;;;;;7.07;5.07;;;10.50;69.20;12.10;100839.00;;;;5019097;28;20188;-75
2023/12/14 01:09:05;;;;;;;8.50;5.72;;;10.50;69.20;12.10;100850.00;;;;5010469;28;20209;-76
2023/12/14 01:11:32;;;;;;;7.20;5.63;;;10.50;69.20;12.10;100868.00;;;;5021126;28;20196;-76
2023/12/14 01:14:00;;;;;;;7.30;5.45;;;10.50;69.30;12.10;100863.00;;;;5007790;28;20635;-76
2023/12/14 01:16:27;;;;;;;6.75;5.10;;;10.50;69.40;12.10;100871.00;;;;5009373;28;20208;-76
2023/12/14 01:18:54;;;;;;;6.05;4.88;;;10.40;69.30;12.10;100875.00;;;;5020865;28;20233;-76
2023/12/14 01:21:21;;;;;;;6.50;5.38;;;10.40;69.30;12.10;100874.00;;;;5011610;28;20200;-75
2023/12/14 01:23:49;;;;;;;6.35;5.05;;;10.40;69.30;12.10;100873.00;;;;5015115;28;20201;-75
2023/12/14 01:26:15;;;;;;;6.55;4.82;;;10.40;70.00;12.10;100874.00;;;;5011763;28;20316;-76
2023/12/14 01:28:42;;;;;;;5.70;4.82;;;10.40;69.40;12.10;100877.00;;;;5010293;28;20204;-76
2023/12/14 01:31:11;;;;;;;6.05;4.90;;;10.40;69.40;12.10;100884.00;;;;5012013;28;20769;-75
2023/12/14 01:33:38;;;;;;;6.70;4.95;;;10.40;69.40;12.10;100878.00;;;;5012853;28;20205;-76
2023/12/14 01:36:05;;;;;;;7.03;5.70;;;10.40;69.30;12.10;100878.00;;;;5026985;28;20592;-75
2023/12/14 01:38:32;;;;;;;6.60;5.35;;;10.40;69.40;12.10;100880.00;;;;5031211;28;20193;-76
2023/12/14 01:41:00;;;;;;;7.57;5.72;;;10.40;69.30;12.10;100879.00;;;;5014746;28;20216;-75
2023/12/14 01:43:28;;;;;;;6.95;5.22;;;10.40;69.30;12.10;100890.00;;;;5020079;28;20204;-76
2023/12/14 01:45:55;;;;;;;7.78;5.50;;;10.40;69.20;12.10;100903.00;;;;5012738;28;20216;-76
2023/12/14 01:48:23;;;;;;;8.02;6.03;;;10.40;69.30;12.10;100907.00;;;;5015203;28;20197;-75
2023/12/14 01:50:50;;;;;;;6.57;5.00;;;10.40;69.30;12.10;100916.00;;;;5029973;28;20185;-76
2023/12/14 01:53:17;;;;;;;6.50;4.95;;;10.40;69.30;12.10;100912.00;;;;5022719;28;20602;-75
2023/12/14 01:55:44;;;;;;;7.18;5.47;;;10.40;69.30;12.00;100935.00;;;;5017024;28;20212;-75
2023/12/14 01:58:11;;;;;;;6.22;4.97;;;10.40;69.20;12.00;100934.00;;;;5030692;28;20188;-75
2023/12/14 02:00:45;;;;;;;6.38;5.22;;;10.40;69.30;12.00;100938.00;;;;5017214;28;20689;-75
2023/12/14 02:03:13;;;;;;;7.25;5.82;;;10.40;69.30;12.10;100942.00;;;;5016633;28;20204;-75
2023/12/14 02:05:41;;;;;;;7.30;5.22;;;10.40;69.30;12.10;100942.00;;;;5022452;28;20208;-75
2023/12/14 02:08:09;;;;;;;6.25;5.03;;;10.40;69.30;12.10;100951.00;;;;5019043;28;20205;-76
2023/12/14 02:10:36;;;;;;;6.53;5.30;;;10.40;69.40;12.10;100952.00;;;;5021841;28;20204;-75
2023/12/14 02:13:03;;;;;;;6.50;5.55;;;10.40;69.40;12.10;100964.00;;;;5011114;28;20747;-76
2023/12/14 02:15:31;;;;;;;6.30;5.43;;;10.40;69.40;12.10;100967.00;;;;5014330;28;20211;-75
2023/12/14 02:17:57;;;;;;;6.57;5.28;;;10.40;69.40;12.10;100972.00;;;;5027662;28;20605;-76
2023/12/14 02:20:24;;;;;;;6.88;5.57;;;10.40;69.40;12.10;100973.00;;;;5018126;28;20216;-75
2023/12/14 02:22:54;;;;;;;6.88;5.13;;;10.40;69.40;12.10;100976.00;;;;5010583;28;20674;-76
2023/12/14 02:25:23;;;;;;;6.53;5.32;;;10.40;69.40;12.10;100982.00;;;;5016023;28;20224;-76
2023/12/14 02:27:52;;;;;;;6.80;5.05;;;10.40;69.30;12.10;100994.00;;;;5009518;28;20193;-76
2023/12/14 02:30:19;;;;;;;6.90;5.30;;;10.40;69.30;12.10;100996.00;;;;5010107;28;20271;-76
2023/12/14 02:32:46;;;;;;;5.88;5.05;;;10.40;69.20;12.10;101004.00;;;;5018582;28;20686;-76
2023/12/14 02:35:13;;;;;;;7.72;5.70;;;10.40;69.20;12.10;101011.00;;;;5026630;28;20196;-75
2023/12/14 02:37:41;;;;;;;6.97;5.55;;;10.40;69.20;12.20;101020.00;;;;5010219;28;20670;-75
2023/12/14 02:40:11;;;;;;;5.95;4.93;;;10.40;69.20;12.10;101019.00;;;;5010528;28;20204;-76
2023/12/14 02:42:38;;;;;;;6.22;5.15;;;10.40;69.20;12.20;101020.00;;;;5022686;28;20196;-76
2023/12/14 02:45:08;;;;;;;6.78;5.35;;;10.50;69.20;12.20;101028.00;;;;5022162;28;20251;-76
2023/12/14 02:47:35;;;;;;;8.73;5.90;;;10.40;69.10;12.20;101025.00;;;;5010013;28;20201;-76
2023/12/14 02:50:02;;;;;;;6.38;5.03;;;10.40;69.10;12.20;101036.00;;;;5010646;28;20213;-76
2023/12/14 02:52:29;;;;;;;7.47;5.57;;;10.40;69.00;12.20;101039.00;;;;5022146;28;20227;-75
2023/12/14 02:54:56;;;;;;;6.40;5.15;;;10.40;68.90;12.20;101043.00;;;;5022826;28;20602;-76
2023/12/14 02:57:24;;;;;;;7.32;5.32;;;10.40;68.90;12.10;101038.00;;;;5022814;28;20649;-75
2023/12/14 02:59:51;;;;;;;6.40;5.07;;;10.40;68.90;12.20;101037.00;;;;5013243;28;20196;-75
2023/12/14 03:02:18;;;;;;;6.18;5.03;;;10.40;69.00;12.20;101042.00;;;;5019938;28;20197;-76
2023/12/14 03:04:45;;;;;;;6.65;5.05;;;10.40;69.10;12.20;101039.00;;;;5010539;28;20201;-75
2023/12/14 03:07:12;;;;;;;6.47;5.45;;;10.40;69.10;12.20;101046.00;;;;5026115;28;20689;-75
2023/12/14 03:09:44;;;;;;;5.28;4.57;;;10.40;69.10;12.20;101053.00;;;;5021725;28;20279;-76
2023/12/14 03:12:11;;;;;;;7.32;5.45;;;10.50;69.10;12.20;101051.00;;;;5024344;28;20227;-75
2023/12/14 03:14:40;;;;;;;6.22;4.93;;;10.50;69.80;12.20;101055.00;;;;5010707;28;20197;-76
2023/12/14 03:17:12;;;;;;;7.88;5.55;;;10.50;69.10;12.20;101053.00;;;;5008818;28;20598;-76
2023/12/14 03:19:40;;;;;;;6.25;5.03;;;10.50;69.10;12.20;101070.00;;;;5019729;28;20200;-75
2023/12/14 03:22:08;;;;;;;8.13;5.70;;;10.50;69.00;12.30;101061.00;;;;5015054;28;20211;-75
2023/12/14 03:24:37;;;;;;;6.85;5.75;;;10.50;69.00;12.30;101070.00;;;;5017239;28;20231;-76
2023/12/14 03:27:05;;;;;;;5.75;5.00;;;10.50;68.90;12.30;101064.00;;;;5013514;28;20223;-75
2023/12/14 03:29:32;;;;;;;7.70;5.00;;;10.50;68.90;12.30;101071.00;;;;5012183;28;20208;-75
2023/12/14 03:32:00;;;;;;;8.18;5.53;;;10.50;69.00;12.30;101070.00;;;;5012575;28;20215;-75
2023/12/14 03:34:27;;;;;;;6.38;4.97;;;10.50;69.00;12.30;101062.00;;;;5022188;28;20243;-75
2023/12/14 03:36:54;;;;;;;7.00;5.20;;;10.50;69.00;12.30;101062.00;;;;5009138;28;20742;-75
2023/12/14 03:39:21;;;;;;;7.95;5.22;;;10.50;69.00;12.30;101059.00;;;;5021216;28;20205;-75
2023/12/14 03:41:49;;;;;;;7.35;5.68;;;10.50;69.00;12.30;101065.00;;;;5011394;28;20541;-75
2023/12/14 03:44:16;;;;;;;5.95;5.07;;;10.50;69.00;12.30;101066.00;;;;5013547;28;20197;-75
2023/12/14 03:46:43;;;;;;;6.78;5.60;;;10.50;69.00;12.30;101058.00;;;;5025756;28;20226;-75
2023/12/14 03:49:11;;;;;;;7.72;5.55;;;10.50;68.90;12.30;101056.00;;;;5017969;28;20578;-75
2023/12/14 03:51:38;;;;;;;6.60;5.45;;;10.50;68.90;12.30;101068.00;;;;5025112;28;20196;-75
2023/12/14 03:54:05;;;;;;;8.02;6.15;;;10.50;68.90;12.30;101072.00;;;;5008641;28;20655;-75
2023/12/14 03:56:32;;;;;;;6.95;5.90;;;10.50;68.80;12.30;101072.00;;;;5017413;28;20203;-75
2023/12/14 03:58:59;;;;;;;8.05;5.50;;;10.50;68.80;12.30;101069.00;;;;5013240;28;20707;-75
2023/12/14 04:01:26;;;;;;;7.80;6.05;;;10.50;68.90;12.30;101072.00;;;;5012653;28;20729;-75
2023/12/14 04:03:53;;;;;;;9.00;5.78;;;10.50;68.90;12.30;101077.00;;;;5018340;28;20196;-75
2023/12/14 04:06:21;;;;;;;6.72;5.47;;;10.50;68.90;12.30;101077.00;;;;5013426;28;20694;-75
2023/12/14 04:08:48;;;;;;;7.35;5.97;;;10.50;68.90;12.40;101086.00;;;;5024819;28;20206;-76
2023/12/14 04:11:15;;;;;;;6.90;5.25;;;10.50;68.90;12.40;101093.00;;;;5021834;28;20197;-76
2023/12/14 04:13:42;;;;;;;7.50;5.68;;;10.50;69.00;12.40;101099.00;;;;5022073;28;20201;-76
2023/12/14 04:16:09;;;;;;;9.15;6.63;;;10.50;69.00;12.40;101101.00;;;;5021429;28;20204;-76
2023/12/14 04:18:37;;;;;;;6.68;5.43;;;10.50;69.00;12.40;101111.00;;;;5010905;28;20224;-76
2023/12/14 04:21:06;;;;;;;6.10;5.22;;;10.60;69.00;12.30;101119.00;;;;5010470;28;20667;-76
2023/12/14 04:23:34;;;;;;;7.85;6.38;;;10.60;69.00;12.30;101128.00;;;;5018988;28;20204;-76
2023/12/14 04:26:01;;;;;;;8.48;5.80;;;10.60;69.00;12.40;101126.00;;;;5008990;28;20228;-76
2023/12/14 04:28:28;;;;;;;8.52;6.18;;;10.60;69.00;12.40;101130.00;;;;5023535;28;20669;-76
2023/12/14 04:30:55;;;;;;;10.10;6.82;;;10.60;69.00;12.40;101144.00;;;;5011950;28;20204;-76
2023/12/14 04:33:22;;;;;;;8.93;6.57;;;10.60;68.90;12.40;101152.00;;;;5019110;28;20207;-76
2023/12/14 04:35:49;;;;;;;8.15;6.72;;;10.60;68.90;12.30;101143.00;;;;5027847;28;20192;-76
2023/12/14 04:38:15;;;;;;;7.93;5.55;;;10.60;68.70;12.30;101154.00;;;;5022700;28;20211;-76
2023/12/14 04:40:44;;;;;;;9.50;5.53;;;10.60;68.70;12.30;101162.00;;;;5008780;28;20659;-76
2023/12/14 04:43:11;;;;;;;9.18;6.20;;;10.50;68.60;12.30;101159.00;;;;5015330;28;20569;-76
2023/12/14 04:45:38;;;;;;;7.63;5.82;;;10.50;68.60;12.30;101168.00;;;;5013285;28;20555;-76
2023/12/14 04:48:06;;;;;;;7.00;5.70;;;10.50;68.60;12.30;101171.00;;;;5017160;28;20199;-76
2023/12/14 04:50:32;;;;;;;7.80;5.95;;;10.50;68.50;12.20;101188.00;;;;5010075;28;20204;-76
2023/12/14 04:52:59;;;;;;;7.55;5.25;;;10.50;68.50;12.20;101187.00;;;;5008426;28;20201;-76
2023/12/14 04:55:27;;;;;;;8.10;5.32;;;10.50;68.40;12.20;101189.00;;;;5017415;28;20304;-76
2023/12/14 04:57:55;;;;;;;6.63;4.90;;;10.50;68.40;12.10;101197.00;;;;5011523;28;20201;-76
2023/12/14 05:00:22;;;;;;;6.75;5.20;;;10.50;68.50;12.20;101200.00;;;;5017850;28;20189;-76
2023/12/14 05:02:49;;;;;;;6.55;4.85;;;10.50;68.50;12.20;101206.00;;;;5016119;28;20211;-76
2023/12/14 05:05:16;;;;;;;9.38;5.35;;;10.40;68.50;12.20;101206.00;;;;5028850;28;20207;-76
2023/12/14 05:07:43;;;;;;;6.47;5.43;;;10.40;68.50;12.20;101212.00;;;;5015030;28;20650;-76
2023/12/14 05:10:11;;;;;;;5.38;4.05;;;10.40;68.60;12.20;101223.00;;;;5017709;28;20205;-76
2023/12/14 05:12:38;;;;;;;6.50;4.93;;;10.40;68.60;12.20;101221.00;;;;5025872;28;21133;-76
2023/12/14 05:15:08;;;;;;;6.97;4.20;;;10.40;68.60;12.20;101227.00;;;;5015227;28;20203;-76
2023/12/14 05:17:36;;;;;;;5.80;4.38;;;10.40;68.50;12.20;101242.00;;;;5023093;28;20286;-76
2023/12/14 05:20:05;;;;;;;7.53;4.32;;;10.40;68.50;12.10;101250.00;;;;5014412;28;20650;-76
2023/12/14 05:22:32;;;;;;;6.22;4.32;;;10.40;68.50;12.10;101257.00;;;;5011975;28;20536;-76
2023/12/14 05:24:58;;;;;;;5.57;4.63;;;10.40;68.40;12.10;101262.00;;;;5013791;28;20228;-76
2023/12/14 05:27:25;;;;;;;5.68;4.15;;;10.40;68.40;12.10;101270.00;;;;5018976;28;20605;-76
2023/12/14 05:29:52;;;;;;;5.78;3.83;;;10.40;68.40;12.10;101268.00;;;;5011981;28;20663;-76
2023/12/14 05:32:21;;;;;;;5.70;4.03;;;10.40;68.40;12.10;101277.00;;;;5017410;28;20188;-75
2023/12/14 05:34:48;;;;;;;5.57;4.13;;;10.40;69.10;12.10;101284.00;;;;5018061;28;20193;-74
2023/12/14 05:37:15;;;;;;;5.88;4.15;;;10.30;68.30;12.00;101279.00;;;;5012746;28;20193;-74
2023/12/14 05:39:43;;;;;;;5.88;4.20;;;10.30;68.30;12.00;101279.00;;;;5013481;28;20208;-74
2023/12/14 05:42:10;;;;;;;5.50;4.18;;;10.30;68.30;12.00;101288.00;;;;5022655;28;20201;-74
2023/12/14 05:44:37;;;;;;;5.00;3.92;;;10.30;68.30;12.00;101291.00;;;;5018233;28;20204;-74
2023/12/14 05:47:04;;;;;;;4.30;3.55;;;10.30;68.30;12.00;101289.00;;;;5021607;28;20228;-74
2023/12/14 05:49:32;;;;;;;5.28;3.55;;;10.30;68.30;11.90;101302.00;;;;5021069;28;20209;-74
2023/12/14 05:52:00;;;;;;;4.38;3.50;;;10.30;68.40;11.90;101294.00;;;;5015896;28;20192;-74
2023/12/14 05:54:28;;;;;;;5.72;4.05;;;10.20;68.30;11.90;101297.00;;;;5020730;28;20739;-75
2023/12/14 05:56:54;;;;;;;5.55;3.75;;;10.20;68.30;11.90;101305.00;;;;5013643;28;20240;-75
2023/12/14 05:59:21;;;;;;;5.10;3.53;;;10.20;68.30;11.90;101305.00;;;;5013866;28;20200;-75
2023/12/14 06:01:48;;;;;;;4.85;3.38;;;10.20;68.40;11.90;101307.00;;;;5017260;28;20589;-75
2023/12/14 06:04:15;;;;;;;4.97;3.78;;;10.20;68.40;11.90;101310.00;;;;5010996;28;20197;-75
2023/12/14 06:06:43;;;;;;;6.57;3.80;;;10.20;68.40;11.90;101316.00;;;;5011037;28;20610;-75
2023/12/14 06:09:10;;;;;;;7.95;4.13;;;10.20;68.30;11.90;101326.00;;;;5011825;28;20207;-75
2023/12/14 06:11:37;;;;;;;4.70;3.45;;;10.20;68.40;11.80;101325.00;;;;5021700;28;20671;-75
2023/12/14 06:14:04;;;;;;;4.18;3.35;;;10.10;68.30;11.80;101332.00;;;;5010804;28;20738;-75
2023/12/14 06:16:31;;;;;;;5.75;3.53;;;10.10;68.20;11.80;101328.00;;;;5010341;28;20708;-75
2023/12/14 06:18:58;;;;;;;5.10;3.47;;;10.10;68.20;11.80;101332.00;;;;5011273;28;20221;-75
2023/12/14 06:21:28;;;;;;;5.72;3.78;;;10.10;68.20;11.80;101338.00;;;;5018054;28;20211;-75
2023/12/14 06:23:58;;;;;;;4.72;3.42;;;10.10;68.20;11.80;101343.00;;;;5028493;28;20589;-75
2023/12/14 06:26:25;;;;;;;5.25;3.45;;;10.10;68.30;11.80;101351.00;;;;5010829;28;20244;-75
2023/12/14 06:28:52;;;;;;;4.95;3.17;;;10.10;68.40;11.80;101352.00;;;;5010026;28;20205;-75
2023/12/14 06:31:21;;;;;;;4.60;3.20;;;10.10;68.40;11.80;101366.00;;;;5010463;28;20209;-75
2023/12/14 06:33:49;;;;;;;4.93;3.80;;;10.10;68.40;11.80;101378.00;;;;5010387;28;20287;-75
2023/12/14 06:36:18;;;;;;;4.93;3.45;;;10.10;68.30;11.80;101373.00;;;;5010602;28;20240;-75
2023/12/14 06:38:45;;;;;;;4.88;3.13;;;10.10;68.30;11.80;101382.00;;;;5013546;28;20283;-75
2023/12/14 06:41:23;;;;;;;4.30;3.30;;;10.10;68.10;11.70;101388.00;;;;5009657;28;20465;-75
2023/12/14 06:43:51;;;;;;;4.43;3.10;;;10.10;68.00;11.80;101397.00;;;;5009898;28;20213;-75
2023/12/14 06:46:18;;;;;;;5.03;3.85;;;10.10;68.00;11.80;101409.00;;;;5016983;28;20220;-75
2023/12/14 06:48:46;;;;;;;4.70;3.80;;;10.00;67.80;11.70;101401.00;;;;5016214;28;20216;-75
2023/12/14 06:51:13;;;;;;;5.28;3.92;;;10.00;67.90;11.70;101401.00;;;;5017805;28;20205;-75
2023/12/14 06:53:42;;;;;;;4.38;3.22;;;10.00;68.00;11.70;101411.00;;;;5020471;28;20558;-75
2023/12/14 06:56:11;;;;;;;6.25;3.35;;;10.00;68.00;11.70;101404.00;;;;5013862;28;20323;-75
2023/12/14 06:58:41;;;;;;;3.97;3.10;;;10.00;68.00;11.70;101414.00;;;;5014364;28;20197;-74
2023/12/14 07:01:08;;;;;;;4.57;3.05;;;10.00;67.90;11.60;101417.00;;;;5014585;28;20215;-74
2023/12/14 07:03:36;;;;;;;5.00;3.95;;;10.00;67.90;11.60;101427.00;;;;5014881;28;20204;-75
2023/12/14 07:06:05;;;;;;;4.47;3.58;;;9.90;67.80;11.60;101431.00;;;;5017353;28;20201;-75
2023/12/14 07:08:32;;;;;;;4.82;3.17;;;10.00;67.80;11.60;101448.00;;;;5021336;28;20521;-75
2023/12/14 07:10:59;;;;;;;4.43;3.03;;;9.90;67.80;11.60;101450.00;;;;5011066;28;20228;-75
2023/12/14 07:13:26;;;;;;;3.45;3.00;;;9.90;67.80;11.60;101457.00;;;;5019046;28;20212;-75
2023/12/14 07:15:54;;;;;;;4.10;3.08;;;9.90;67.80;11.60;101462.00;;;;5016177;28;20220;-75
2023/12/14 07:18:20;;;;;;;6.25;3.40;;;9.90;67.70;11.60;101452.00;;;;5007542;28;20616;-74
2023/12/14 07:20:47;;;;;;;4.43;3.33;;;9.90;67.70;11.60;101458.00;;;;5016372;28;20200;-75
2023/12/14 07:23:14;;;;;;;4.97;3.60;;;9.90;67.50;11.50;101455.00;;;;5030496;28;20196;-75
2023/12/14 07:25:41;;;;;;;4.15;3.10;;;9.90;67.50;11.50;101463.00;;;;5025690;28;20205;-74
2023/12/14 07:28:08;;;;;;;4.45;3.50;;;9.80;67.30;11.50;101463.00;;;;5016629;28;20235;-75
2023/12/14 07:30:35;;;;;;;3.35;2.83;;;9.80;67.20;11.50;101474.00;;;;5008196;28;20259;-75
2023/12/14 07:33:03;;;;;;;4.55;3.28;;;9.80;67.30;11.50;101481.00;;;;5014182;28;20200;-75
2023/12/14 07:35:30;;;;;;;3.72;3.10;;;9.80;67.30;11.50;101476.00;;;;5009178;28;20197;-75
2023/12/14 07:37:57;;;;;;;4.80;3.63;;;9.80;67.40;11.50;101491.00;;;;5008936;28;20228;-75
2023/12/14 07:40:24;;;;;;;3.80;3.05;;;9.70;67.40;11.50;101491.00;;;;5010354;28;20197;-75
2023/12/14 07:42:51;;;;;;;3.80;2.78;;;9.70;67.50;11.50;101490.00;;;;5017716;28;20199;-75
2023/12/14 07:45:18;;;;;;;8.48;3.75;;;9.70;67.60;11.50;101500.00;;;;5012590;28;20208;-75
2023/12/14 07:47:46;;;;;;;5.03;3.58;;;9.80;67.60;11.50;101502.00;;;;5008578;28;20312;-75
2023/12/14 07:50:14;;;;;;;4.50;3.53;;;9.80;67.50;11.50;101510.00;;;;5012571;28;20193;-75
2023/12/14 07:52:42;;;;;;;4.20;3.15;;;9.70;67.50;11.50;101510.00;;;;5007693;28;20201;-74
2023/12/14 07:55:09;;;;;;;4.30;3.08;;;9.80;67.60;11.60;101512.00;;;;5008987;28;20637;-75
2023/12/14 07:57:36;;;;;;;4.15;3.25;;;9.70;67.60;11.60;101517.00;;;;5008725;28;20209;-74
2023/12/14 08:00:04;;;;;;;5.13;3.90;;;9.80;67.50;11.60;101520.00;;;;5008456;28;20200;-74
2023/12/14 08:02:31;;;;;;;5.05;3.22;;;9.80;67.40;11.60;101526.00;;;;5010584;28;20606;-74
2023/12/14 08:04:58;;;;;;;5.53;3.55;;;9.80;67.40;11.50;101521.00;;;;5015489;28;20580;-75
2023/12/14 08:07:28;;;;;;;3.85;3.13;;;9.80;67.40;11.50;101533.00;;;;5021331;28;20231;-75
2023/12/14 08:09:56;;;;;;;5.10;3.42;;;9.80;67.20;11.50;101527.00;;;;5025285;28;20199;-75
2023/12/14 08:12:24;;;;;;;4.50;3.30;;;9.70;67.90;11.50;101527.00;;;;5018889;28;20196;-75
2023/12/14 08:14:51;;;;;;;4.38;3.38;;;9.70;67.10;11.50;101535.00;;;;5015224;28;20581;-75
2023/12/14 08:17:19;;;;;;;4.70;3.45;;;9.70;67.00;11.40;101529.00;;;;5006929;28;20204;-75
2023/12/14 08:19:45;;;;;;;5.35;3.85;;;9.70;67.00;11.50;101533.00;;;;5014573;28;20205;-75
2023/12/14 08:22:15;;;;;;;3.65;3.03;;;9.70;66.90;11.50;101542.00;;;;5008947;28;20228;-75
2023/12/14 08:24:43;;;;;;;4.57;3.28;;;9.70;67.00;11.40;101555.00;;;;5013164;28;20201;-75
2023/12/14 08:27:10;;;;;;;4.45;3.47;;;9.70;67.10;11.40;101564.00;;;;5006467;28;20232;-75
2023/12/14 08:29:38;;;;;;;5.30;3.25;;;9.70;66.90;11.40;101556.00;;;;5018922;28;20633;-75
2023/12/14 08:32:06;;;;;;;5.35;3.70;;;9.70;66.90;11.40;101562.00;;;;5009950;28;20188;-75
2023/12/14 08:34:33;;;;;;;5.25;3.38;;;9.70;67.00;11.40;101564.00;;;;5016565;28;20192;-75
2023/12/14 08:37:02;;;;;;;5.07;3.10;;;9.70;67.00;11.40;101569.00;;;;5025313;28;20286;-75
2023/12/14 08:39:29;;;;;;;6.05;3.33;;;9.70;67.00;11.50;101566.00;;;;5023107;28;20223;-75
2023/12/14 08:41:57;;;;;;;4.70;3.33;;;9.70;67.00;11.50;101569.00;;;;5030022;28;20196;-75
2023/12/14 08:44:24;;;;;;;3.88;3.22;;;9.70;67.10;11.50;101566.00;;;;5028185;28;20197;-75
2023/12/14 08:46:51;;;;;;;4.95;3.58;;;9.70;67.20;11.50;101576.00;;;;5029285;28;20724;-75
2023/12/14 08:49:19;;;;;;;4.80;3.72;;;9.70;67.30;11.60;101581.00;;;;5024045;28;20200;-75
2023/12/14 08:51:46;;;;;;;5.57;3.60;;;9.70;67.30;11.60;101591.00;;;;5011986;28;20209;-75
2023/12/14 08:54:13;;;;;;;4.65;3.88;;;9.70;67.30;11.60;101587.00;;;;5022394;28;20830;-75
2023/12/14 08:56:40;;;;;;;4.45;3.40;;;9.80;67.40;11.70;101604.00;;;;5009977;28;20224;-75
2023/12/14 08:59:09;;;;;;;5.25;3.75;;;9.80;67.30;11.60;101603.00;;;;5014430;28;20197;-75
2023/12/14 09:01:36;;;;;;;5.40;3.60;;;9.80;67.30;11.70;101603.00;;;;5009168;28;20858;-75
2023/12/14 09:04:03;;;;;;;5.43;3.65;;;9.80;67.20;11.70;101613.00;;;;5015725;28;20199;-75
2023/12/14 09:06:30;;;;;;;4.63;3.25;;;9.80;67.20;11.70;101607.00;;;;5010830;28;20209;-75
2023/12/14 09:08:57;;;;;;;5.38;3.65;;;9.80;67.10;11.70;101619.00;;;;5016814;28;20197;-75
2023/12/14 09:11:25;;;;;;;4.97;3.40;;;9.90;67.00;11.70;101622.00;;;;5018992;28;20231;-75
2023/12/14 09:13:52;;;;;;;5.07;3.88;;;9.90;67.00;11.70;101622.00;;;;5021814;28;20675;-75
2023/12/14 09:16:21;;;;;;;4.50;3.42;;;9.90;67.00;11.70;101627.00;;;;5011299;28;20204;-75
2023/12/14 09:18:48;;;;;;;4.97;3.80;;;9.90;67.00;11.80;101638.00;;;;5027526;28;20235;-75
2023/12/14 09:21:15;;;;;;;4.90;4.10;;;9.90;67.10;11.80;101634.00;;;;5015644;28;20201;-75
2023/12/14 09:23:42;;;;;;;6.93;3.97;;;9.90;67.10;11.80;101650.00;;;;5010193;28;20698;-75
2023/12/14 09:26:10;;;;;;;3.95;3.15;;;9.90;67.00;11.80;101649.00;;;;5011097;28;20201;-75
2023/12/14 09:28:37;;;;;;;4.28;3.65;;;10.00;67.10;11.90;101653.00;;;;5024008;28;20224;-75
2023/12/14 09:31:05;;;;;;;4.53;3.55;;;10.00;67.10;11.90;101648.00;;;;5022254;28;20223;-75
2023/12/14 09:33:33;;;;;;;4.57;3.40;;;10.00;67.10;11.90;101651.00;;;;5027888;28;20208;-75
2023/12/14 09:36:00;;;;;;;5.95;3.95;;;10.00;67.10;11.90;101661.00;;;;5014887;28;20201;-75
2023/12/14 09:38:28;;;;;;;4.25;3.28;;;10.00;67.10;12.00;101664.00;;;;5020651;28;20208;-76
2023/12/14 09:40:55;;;;;;;6.78;3.92;;;10.10;67.10;12.00;101672.00;;;;5026434;28;20254;-77
2023/12/14 09:43:23;;;;;;;6.43;3.95;;;10.10;67.20;12.00;101679.00;;;;5022663;28;20205;-77
2023/12/14 09:45:51;;;;;;;4.63;3.70;;;10.10;67.10;12.00;101679.00;;;;5015152;28;20197;-77
2023/12/14 09:48:20;;;;;;;4.97;3.20;;;10.10;67.10;12.00;101689.00;;;;5027879;28;20216;-77
2023/12/14 09:50:51;;;;;;;5.88;3.72;;;10.20;67.10;12.00;101688.00;;;;5015627;28;20205;-77
2023/12/14 09:53:18;;;;;;;4.28;3.22;;;10.20;67.00;12.10;101696.00;;;;5012851;28;20199;-77
2023/12/14 09:55:45;;;;;;;5.32;3.85;;;10.20;67.10;12.10;101701.00;;;;5016649;28;20224;-78
2023/12/14 09:58:12;;;;;;;4.28;3.00;;;10.20;67.10;12.20;101709.00;;;;5017970;28;20196;-77
2023/12/14 10:00:41;;;;;;;4.95;3.85;;;10.20;67.10;12.20;101715.00;;;;5027664;28;20208;-77
2023/12/14 10:03:21;;;;;;;6.53;4.10;;;10.30;67.00;12.10;101714.00;;;;5016428;28;20200;-77
2023/12/14 10:05:50;;;;;;;5.15;3.50;;;10.30;66.80;12.20;101717.00;;;;5016026;28;20201;-77
2023/12/14 10:08:17;;;;;;;5.28;3.35;;;10.30;66.80;12.20;101721.00;;;;5010911;28;20219;-77
2023/12/14 10:10:45;;;;;;;5.80;3.67;;;10.30;66.70;12.20;101725.00;;;;5009025;28;20205;-77
2023/12/14 10:13:12;;;;;;;4.25;3.67;;;10.30;66.70;12.30;101728.00;;;;5017501;28;20208;-77
2023/12/14 10:15:43;;;;;;;4.57;3.83;;;10.30;66.80;12.30;101716.00;;;;5022342;28;20207;-77
2023/12/14 10:18:10;;;;;;;4.90;3.53;;;10.40;66.80;12.40;101719.00;;;;5015545;28;20263;-77
2023/12/14 10:20:38;;;;;;;6.95;4.63;;;10.40;67.00;12.40;101719.00;;;;5018311;28;20759;-77
2023/12/14 10:23:10;;;;;;;5.28;3.75;;;10.40;67.00;12.50;101721.00;;;;5009139;28;20667;-77
2023/12/14 10:25:37;;;;;;;5.40;4.07;;;10.50;67.10;12.50;101722.00;;;;5008091;28;20785;-77
2023/12/14 10:28:04;;;;;;;4.80;3.10;;;10.60;67.90;12.60;101720.00;;;;5011719;28;20232;-77
2023/12/14 10:30:31;;;;;;;5.78;3.83;;;10.60;67.10;12.60;101726.00;;;;5008673;28;20690;-77
2023/12/14 10:32:58;;;;;;;5.15;3.67;;;10.60;67.00;12.60;101728.00;;;;5014941;28;20699;-77
2023/12/14 10:35:27;;;;;;;5.72;3.58;;;10.70;66.80;12.70;101732.00;;;;5019543;28;20231;-77
2023/12/14 10:37:54;;;;;;;5.32;4.35;;;10.70;66.70;12.70;101729.00;;;;5013233;28;20248;-77
2023/12/14 10:40:25;;;;;;;4.50;3.55;;;10.70;66.50;12.70;101731.00;;;;5026728;28;20207;-77
2023/12/14 10:42:54;;;;;;;4.20;3.08;;;10.80;66.70;12.70;101730.00;;;;5011657;28;20214;-77
2023/12/14 10:45:25;;;;;;;4.22;3.55;;;10.80;66.60;12.70;101726.00;;;;5010450;28;20207;-77
2023/12/14 10:47:53;;;;;;;5.10;3.40;;;10.80;66.30;12.80;101721.00;;;;5020127;28;20313;-77